createdAt,value
2023-01-07T00:00:12.127Z,1.40
2023-01-07T00:02:40.789Z,1.33
2023-01-07T00:05:10.583Z,1.00
2023-01-07T00:07:40.619Z,1.40
2023-01-07T00:10:10.102Z,1.30
2023-01-07T00:12:38.723Z,1.30
2023-01-07T00:15:08.980Z,1.03
2023-01-07T00:17:37.588Z,1.20
2023-01-07T00:20:07.562Z,1.10
2023-01-07T00:22:36.163Z,1.10
2023-01-07T00:25:07.304Z,1.20
2023-01-07T00:27:35.929Z,1.07
2023-01-07T00:30:05.235Z,1.10
2023-01-07T00:35:28.480Z,1.23
2023-01-07T00:37:57.500Z,1.07
2023-01-07T00:40:26.430Z,1.00
2023-01-07T00:43:01.666Z,1.00
2023-01-07T00:45:33.160Z,1.10
2023-01-07T00:48:03.415Z,1.23
2023-01-07T00:50:36.613Z,1.10
2023-01-07T00:53:06.258Z,1.27
2023-01-07T00:55:35.015Z,1.10
2023-01-07T00:58:04.590Z,1.20
2023-01-07T01:00:33.615Z,1.23
2023-01-07T01:03:02.950Z,1.30
2023-01-07T01:05:32.999Z,1.23
2023-01-07T01:08:01.647Z,1.27
2023-01-07T01:10:30.301Z,1.57
2023-01-07T01:12:59.019Z,1.20
2023-01-07T01:15:27.877Z,1.20
2023-01-07T01:17:56.621Z,1.50
2023-01-07T01:20:25.315Z,1.40
2023-01-07T01:22:55.367Z,1.53
2023-01-07T01:25:23.954Z,1.43
2023-01-07T01:27:52.969Z,1.30
2023-01-07T01:30:21.762Z,1.40
2023-01-07T01:32:50.693Z,1.20
2023-01-07T01:35:19.320Z,1.30
2023-01-07T01:37:47.954Z,1.70
2023-01-07T01:40:18.114Z,1.30
2023-01-07T01:42:46.744Z,1.10
2023-01-07T01:45:19.276Z,1.27
2023-01-07T01:47:51.234Z,1.50
2023-01-07T01:50:26.153Z,1.40
2023-01-07T01:53:01.878Z,1.50
2023-01-07T01:55:37.305Z,1.53
2023-01-07T01:58:12.740Z,1.40
2023-01-07T02:00:41.531Z,1.50
2023-01-07T02:03:18.083Z,1.57
2023-01-07T02:05:48.153Z,1.43
2023-01-07T02:08:22.054Z,1.50
2023-01-07T02:11:08.554Z,1.70
2023-01-07T02:13:48.668Z,1.20
2023-01-07T02:16:24.561Z,1.53
2023-01-07T02:19:28.883Z,1.30
2023-01-07T02:22:02.891Z,1.23
2023-01-07T02:25:17.155Z,1.30
2023-01-07T02:28:17.210Z,1.60
2023-01-07T02:31:20.614Z,1.33
2023-01-07T02:33:59.469Z,1.40
2023-01-07T02:36:51.050Z,1.10
2023-01-07T02:39:47.597Z,1.57
2023-01-07T02:42:24.801Z,1.30
2023-01-07T02:45:03.827Z,1.47
2023-01-07T02:47:38.756Z,1.50
2023-01-07T02:50:10.415Z,1.40
2023-01-07T02:52:39.211Z,1.73
2023-01-07T02:55:15.887Z,1.40
2023-01-07T02:58:29.199Z,1.60
2023-01-07T03:01:37.185Z,1.43
2023-01-07T03:04:44.663Z,1.50
2023-01-07T03:07:29.327Z,1.60
2023-01-07T03:10:07.064Z,1.77
2023-01-07T03:12:42.637Z,1.43
2023-01-07T03:15:18.927Z,1.70
2023-01-07T03:17:55.829Z,1.27
2023-01-07T03:20:27.103Z,1.43
2023-01-07T03:22:58.897Z,1.60
2023-01-07T03:25:31.199Z,1.43
2023-01-07T03:28:01.921Z,1.40
2023-01-07T03:30:33.436Z,1.70
2023-01-07T03:33:09.056Z,1.57
2023-01-07T03:35:41.385Z,1.37
2023-01-07T03:38:12.653Z,1.50
2023-01-07T03:40:41.482Z,1.77
2023-01-07T03:43:14.203Z,1.57
2023-01-07T03:45:44.426Z,1.57
2023-01-07T03:48:13.124Z,1.70
2023-01-07T03:50:41.810Z,1.47
2023-01-07T03:53:11.905Z,1.30
2023-01-07T03:55:40.754Z,1.37
2023-01-07T03:58:10.066Z,1.40
2023-01-07T04:00:38.707Z,1.40
2023-01-07T04:03:17.018Z,1.50
2023-01-07T04:05:48.222Z,1.40
2023-01-07T04:08:18.328Z,1.50
2023-01-07T04:10:47.628Z,1.70
2023-01-07T04:13:16.306Z,1.50
2023-01-07T04:15:47.210Z,1.50
2023-01-07T04:18:15.765Z,1.40
2023-01-07T04:20:48.791Z,1.47
2023-01-07T04:23:19.664Z,2.00
2023-01-07T04:25:51.262Z,1.40
2023-01-07T04:28:24.008Z,1.77
2023-01-07T04:30:53.127Z,1.60
2023-01-07T04:33:22.609Z,1.33
2023-01-07T04:35:51.303Z,1.50
2023-01-07T04:38:22.450Z,1.30
2023-01-07T04:40:51.436Z,1.30
2023-01-07T04:43:20.113Z,1.43
2023-01-07T04:45:48.879Z,1.50
2023-01-07T04:48:20.055Z,1.30
2023-01-07T04:50:52.117Z,1.30
2023-01-07T04:53:22.810Z,1.47
2023-01-07T04:55:51.955Z,1.10
2023-01-07T04:58:20.899Z,1.20
2023-01-07T05:00:50.025Z,1.37
2023-01-07T05:03:20.499Z,1.37
2023-01-07T05:05:50.097Z,1.50
2023-01-07T05:08:20.253Z,1.43
2023-01-07T05:10:51.839Z,1.20
2023-01-07T05:13:23.760Z,1.43
2023-01-07T05:15:53.360Z,1.00
2023-01-07T05:18:22.675Z,1.37
2023-01-07T05:20:51.328Z,1.40
2023-01-07T05:23:20.797Z,1.47
2023-01-07T05:25:52.092Z,1.27
2023-01-07T05:28:20.859Z,1.20
2023-01-07T05:30:49.572Z,1.50
2023-01-07T05:33:18.654Z,1.30
2023-01-07T05:35:49.644Z,1.60
2023-01-07T05:38:19.745Z,1.10
2023-01-07T05:40:51.422Z,1.10
2023-01-07T05:43:24.424Z,1.30
2023-01-07T05:45:53.134Z,1.10
2023-01-07T05:48:21.841Z,1.30
2023-01-07T05:50:50.433Z,1.03
2023-01-07T05:53:19.414Z,1.10
2023-01-07T05:55:48.090Z,1.40
2023-01-07T05:58:18.095Z,1.27
2023-01-07T06:00:46.775Z,1.30
2023-01-07T06:03:15.527Z,1.20
2023-01-07T06:05:44.475Z,1.40
2023-01-07T06:08:13.058Z,1.60
2023-01-07T06:10:42.429Z,1.10
2023-01-07T06:13:11.204Z,1.37
2023-01-07T06:15:41.303Z,1.53
2023-01-07T06:18:10.152Z,1.23
2023-01-07T06:20:38.732Z,1.10
2023-01-07T06:23:07.316Z,1.30
2023-01-07T06:25:35.966Z,1.00
2023-01-07T06:28:05.271Z,1.20
2023-01-07T06:30:33.957Z,0.97
2023-01-07T06:33:05.473Z,1.13
2023-01-07T06:35:34.762Z,1.20
2023-01-07T06:38:03.395Z,1.20
2023-01-07T06:40:32.123Z,1.10
2023-01-07T06:43:00.764Z,1.20
2023-01-07T06:45:29.877Z,1.20
2023-01-07T06:47:58.658Z,1.20
2023-01-07T06:50:28.823Z,1.20
2023-01-07T06:52:57.968Z,1.30
2023-01-07T06:55:26.602Z,1.20
2023-01-07T06:57:55.388Z,1.07
2023-01-07T07:00:24.239Z,1.23
2023-01-07T07:02:53.147Z,1.20
2023-01-07T07:05:22.144Z,1.20
2023-01-07T07:07:52.281Z,1.40
2023-01-07T07:10:21.246Z,1.30
2023-01-07T07:12:50.130Z,1.60
2023-01-07T07:15:19.073Z,1.90
2023-01-07T07:17:47.964Z,1.90
2023-01-07T07:20:16.753Z,1.80
2023-01-07T07:22:50.952Z,1.30
2023-01-07T07:25:19.588Z,1.60
2023-01-07T07:27:48.418Z,1.57
2023-01-07T07:30:17.661Z,1.40
2023-01-07T07:32:46.444Z,1.40
2023-01-07T07:35:15.159Z,1.40
2023-01-07T07:37:43.798Z,1.20
2023-01-07T07:40:14.636Z,1.30
2023-01-07T07:43:11.556Z,1.40
2023-01-07T07:45:31.994Z,1.37
2023-01-07T07:48:00.623Z,1.40
2023-01-07T07:50:29.266Z,1.27
2023-01-07T07:52:57.889Z,1.30
2023-01-07T07:55:27.939Z,1.30
2023-01-07T07:57:56.937Z,1.20
2023-01-07T08:00:26.225Z,1.60
2023-01-07T08:02:58.524Z,1.63
2023-01-07T08:05:27.601Z,1.43
2023-01-07T08:07:56.754Z,1.37
2023-01-07T08:10:27.553Z,1.40
2023-01-07T08:12:56.247Z,1.20
2023-01-07T08:15:24.895Z,1.40
2023-01-07T08:18:00.090Z,1.30
2023-01-07T08:20:29.388Z,1.40
2023-01-07T08:23:00.357Z,1.50
2023-01-07T08:25:32.467Z,1.53
2023-01-07T08:28:02.605Z,1.77
2023-01-07T08:30:32.033Z,1.60
2023-01-07T08:33:01.695Z,2.37
2023-01-07T08:35:30.339Z,2.10
2023-01-07T08:38:03.989Z,1.70
2023-01-07T08:40:34.444Z,1.80
2023-01-07T08:43:04.909Z,1.80
2023-01-07T08:45:34.113Z,1.60
2023-01-07T08:48:03.121Z,1.50
2023-01-07T08:50:34.315Z,1.50
2023-01-07T08:53:02.953Z,1.40
2023-01-07T08:55:32.909Z,1.30
2023-01-07T08:58:01.569Z,1.30
2023-01-07T09:00:30.255Z,1.43
2023-01-07T09:02:58.986Z,1.57
2023-01-07T09:05:27.632Z,1.60
2023-01-07T09:07:56.918Z,1.70
2023-01-07T09:10:26.619Z,1.40
2023-01-07T09:12:56.759Z,1.70
2023-01-07T09:15:28.335Z,1.60
2023-01-07T09:17:56.986Z,1.63
2023-01-07T09:20:25.614Z,1.30
2023-01-07T09:22:54.315Z,1.53
2023-01-07T09:25:22.983Z,1.33
2023-01-07T09:27:51.811Z,1.80
2023-01-07T09:30:21.878Z,1.50
2023-01-07T09:32:50.467Z,1.77
2023-01-07T09:35:19.495Z,2.00
2023-01-07T09:37:48.167Z,1.90
2023-01-07T09:40:25.010Z,1.93
2023-01-07T09:43:03.362Z,1.53
2023-01-07T09:45:37.651Z,1.70
2023-01-07T09:48:16.503Z,1.33
2023-01-07T09:50:52.482Z,1.47
2023-01-07T09:53:26.675Z,1.50
2023-01-07T09:56:10.738Z,1.93
2023-01-07T09:58:44.233Z,1.70
2023-01-07T10:01:25.440Z,1.43
2023-01-07T10:04:16.747Z,1.40
2023-01-07T10:06:53.727Z,1.43
2023-01-07T10:09:37.313Z,1.33
2023-01-07T10:12:14.666Z,1.83
2023-01-07T10:15:06.838Z,1.20
2023-01-07T10:18:01.841Z,1.20
2023-01-07T10:20:39.094Z,1.20
2023-01-07T10:23:14.190Z,1.50
2023-01-07T10:25:47.310Z,1.60
2023-01-07T10:28:22.114Z,1.60
2023-01-07T10:30:53.070Z,1.17
2023-01-07T10:33:26.952Z,1.30
2023-01-07T10:36:07.103Z,1.70
2023-01-07T10:38:38.690Z,1.30
2023-01-07T10:41:15.801Z,1.10
2023-01-07T10:44:04.774Z,1.70
2023-01-07T10:46:49.973Z,1.40
2023-01-07T10:49:42.176Z,1.00
2023-01-07T10:52:21.286Z,1.43
2023-01-07T10:55:29.427Z,1.80
2023-01-07T10:57:59.317Z,1.60
2023-01-07T11:00:34.364Z,1.70
2023-01-07T11:03:03.142Z,1.97
2023-01-07T11:05:39.759Z,1.80
2023-01-07T11:08:15.097Z,1.40
2023-01-07T11:10:44.203Z,1.77
2023-01-07T11:13:17.610Z,1.80
2023-01-07T11:15:52.041Z,1.37
2023-01-07T11:18:25.882Z,1.30
2023-01-07T11:20:57.568Z,1.43
2023-01-07T11:23:35.956Z,1.20
2023-01-07T11:26:28.316Z,1.30
2023-01-07T11:28:59.991Z,1.30
2023-01-07T11:31:49.300Z,1.30
2023-01-07T11:34:24.561Z,1.10
2023-01-07T11:36:57.576Z,1.30
2023-01-07T11:39:29.425Z,1.60
2023-01-07T11:42:00.496Z,1.20
2023-01-07T11:44:29.362Z,1.30
2023-01-07T11:46:58.261Z,1.30
2023-01-07T11:49:32.279Z,1.10
2023-01-07T11:52:02.355Z,1.30
2023-01-07T11:54:33.829Z,1.37
2023-01-07T11:57:21.927Z,1.30
2023-01-07T12:00:13.486Z,1.30
2023-01-07T12:02:42.321Z,1.30
2023-01-07T12:05:21.835Z,1.40
2023-01-07T12:07:53.042Z,1.30
2023-01-07T12:10:32.713Z,1.30
2023-01-07T12:13:04.005Z,1.30
2023-01-07T12:15:35.564Z,1.60
2023-01-07T12:18:43.027Z,1.30
2023-01-07T12:21:34.604Z,1.17
2023-01-07T12:24:55.222Z,1.77
2023-01-07T12:27:40.737Z,2.40
2023-01-07T12:30:57.963Z,1.80
2023-01-07T12:33:55.733Z,1.17
2023-01-07T12:36:38.759Z,1.70
2023-01-07T12:39:17.082Z,1.40
2023-01-07T12:42:02.534Z,1.43
2023-01-07T12:44:31.479Z,1.50
2023-01-07T12:47:30.661Z,1.67
2023-01-07T12:50:04.973Z,1.90
2023-01-07T12:52:45.184Z,2.10
2023-01-07T12:55:21.861Z,1.90
2023-01-07T12:58:05.408Z,2.03
2023-01-07T13:00:38.761Z,2.00
2023-01-07T13:03:20.754Z,1.90
2023-01-07T13:05:55.918Z,1.97
2023-01-07T13:08:35.281Z,1.87
2023-01-07T13:11:15.529Z,1.70
2023-01-07T13:13:53.187Z,1.83
2023-01-07T13:16:23.965Z,1.77
2023-01-07T13:18:52.592Z,1.70
2023-01-07T13:21:24.926Z,1.80
2023-01-07T13:24:08.669Z,1.60
2023-01-07T13:26:53.705Z,1.90
2023-01-07T13:29:46.293Z,1.50
2023-01-07T13:32:34.693Z,1.30
2023-01-07T13:35:35.690Z,1.50
2023-01-07T13:38:32.355Z,1.50
2023-01-07T13:41:32.896Z,1.60
2023-01-07T13:44:25.721Z,1.57
2023-01-07T13:46:56.156Z,1.63
2023-01-07T13:49:28.601Z,1.70
2023-01-07T13:51:58.158Z,1.30
2023-01-07T13:54:58.616Z,1.60
2023-01-07T13:57:46.971Z,1.33
2023-01-07T14:00:45.619Z,1.60
2023-01-07T14:03:41.260Z,1.17
2023-01-07T14:06:44.958Z,1.70
2023-01-07T14:09:32.318Z,1.57
2023-01-07T14:12:47.998Z,1.50
2023-01-07T14:16:02.325Z,1.50
2023-01-07T14:19:07.589Z,1.67
2023-01-07T14:21:53.537Z,4.33
2023-01-07T14:24:56.233Z,5.23
2023-01-07T14:27:45.879Z,3.70
2023-01-07T14:30:21.841Z,3.77
2023-01-07T14:33:00.201Z,2.33
2023-01-07T14:35:35.690Z,2.10
2023-01-07T14:39:06.798Z,2.90
2023-01-07T14:41:35.619Z,3.33
2023-01-07T14:44:30.504Z,2.50
2023-01-07T14:46:59.324Z,2.87
2023-01-07T14:50:02.801Z,2.57
2023-01-07T14:53:00.791Z,2.40
2023-01-07T14:56:06.479Z,1.80
2023-01-07T14:59:07.964Z,1.67
2023-01-07T15:02:45.168Z,1.50
2023-01-07T15:05:40.634Z,1.97
2023-01-07T15:08:32.254Z,1.70
2023-01-07T15:11:20.676Z,1.70
2023-01-07T15:14:16.909Z,2.00
2023-01-07T15:16:49.026Z,2.00
2023-01-07T15:19:17.763Z,1.80
2023-01-07T15:22:01.508Z,1.70
2023-01-07T15:24:39.014Z,1.50
2023-01-07T15:27:15.227Z,1.50
2023-01-07T15:29:54.641Z,1.70
2023-01-07T15:32:38.348Z,1.77
2023-01-07T15:35:16.569Z,1.83
2023-01-07T15:37:47.450Z,1.87
2023-01-07T15:40:23.516Z,1.90
2023-01-07T15:42:56.763Z,1.80
2023-01-07T15:45:28.602Z,1.70
2023-01-07T15:48:08.977Z,2.10
2023-01-07T15:50:45.864Z,1.63
2023-01-07T15:53:22.796Z,2.10
2023-01-07T15:55:58.478Z,2.40
2023-01-07T15:58:36.450Z,3.03
2023-01-07T16:01:06.025Z,2.80
2023-01-07T16:03:38.822Z,2.37
2023-01-07T16:06:28.438Z,2.47
2023-01-07T16:08:57.294Z,2.40
2023-01-07T16:11:30.011Z,2.50
2023-01-07T16:14:00.125Z,2.60
2023-01-07T16:16:32.088Z,3.10
2023-01-07T16:19:02.312Z,3.23
2023-01-07T16:21:33.713Z,3.50
2023-01-07T16:24:02.476Z,5.27
2023-01-07T16:26:40.644Z,5.80
2023-01-07T16:29:14.230Z,4.17
2023-01-07T16:31:43.282Z,3.17
2023-01-07T16:35:01.671Z,3.50
2023-01-07T16:37:31.427Z,3.13
2023-01-07T16:40:00.830Z,3.43
2023-01-07T16:42:33.539Z,3.00
2023-01-07T16:45:09.110Z,3.17
2023-01-07T16:47:39.590Z,3.17
2023-01-07T16:50:32.051Z,4.30
2023-01-07T16:53:00.913Z,3.87
2023-01-07T16:55:49.100Z,4.10
2023-01-07T16:58:27.751Z,4.43
2023-01-07T17:01:01.027Z,3.83
2023-01-07T17:03:45.825Z,3.80
2023-01-07T17:06:23.239Z,4.23
2023-01-07T17:08:55.581Z,3.90
2023-01-07T17:11:31.375Z,4.10
2023-01-07T17:14:01.542Z,4.70
2023-01-07T17:16:32.826Z,5.33
2023-01-07T17:19:25.741Z,9.53
2023-01-07T17:21:55.090Z,10.67
2023-01-07T17:24:46.955Z,9.50
2023-01-07T17:27:25.586Z,7.67
2023-01-07T17:29:56.111Z,7.87
2023-01-07T17:32:25.404Z,8.93
2023-01-07T17:34:56.508Z,9.33
2023-01-07T17:37:25.172Z,9.80
2023-01-07T17:39:53.774Z,8.43
2023-01-07T17:42:43.185Z,7.47
2023-01-07T17:45:19.948Z,5.93
2023-01-07T17:47:52.816Z,4.70
2023-01-07T17:50:22.281Z,6.67
2023-01-07T17:52:54.038Z,10.00
2023-01-07T17:55:26.770Z,11.23
2023-01-07T17:57:57.417Z,15.70
2023-01-07T18:00:30.781Z,13.97
2023-01-07T18:02:59.661Z,12.53
2023-01-07T18:05:30.991Z,19.70
2023-01-07T18:08:01.685Z,19.43
2023-01-07T18:10:52.054Z,13.90
2023-01-07T18:13:19.738Z,10.63
2023-01-07T18:15:50.944Z,9.17
2023-01-07T18:18:19.645Z,9.03
2023-01-07T18:20:48.282Z,7.57
2023-01-07T18:23:18.111Z,7.23
2023-01-07T18:25:47.231Z,6.50
2023-01-07T18:28:15.888Z,5.77
2023-01-07T18:30:44.882Z,5.63
2023-01-07T18:33:15.043Z,5.70
2023-01-07T18:35:43.705Z,7.27
2023-01-07T18:38:13.873Z,7.53
2023-01-07T18:40:42.995Z,6.83
2023-01-07T18:43:15.988Z,7.43
2023-01-07T18:45:46.638Z,6.70
2023-01-07T18:48:18.649Z,6.80
2023-01-07T18:50:49.915Z,6.23
2023-01-07T18:53:22.471Z,5.87
2023-01-07T18:56:01.368Z,5.93
2023-01-07T18:58:30.141Z,5.77
2023-01-07T19:01:04.819Z,5.90
2023-01-07T19:03:35.302Z,5.90
2023-01-07T19:06:08.541Z,7.67
2023-01-07T19:08:37.665Z,7.17
2023-01-07T19:11:08.615Z,6.93
2023-01-07T19:13:37.424Z,6.53
2023-01-07T19:16:08.302Z,5.70
2023-01-07T19:18:38.310Z,5.23
2023-01-07T19:21:09.850Z,6.70
2023-01-07T19:23:38.510Z,7.57
2023-01-07T19:26:09.730Z,7.37
2023-01-07T19:28:38.366Z,5.30
2023-01-07T19:31:08.983Z,5.37
2023-01-07T19:33:39.633Z,4.93
2023-01-07T19:36:11.122Z,5.17
2023-01-07T19:38:40.755Z,5.20
2023-01-07T19:41:11.493Z,8.37
2023-01-07T19:43:40.436Z,11.30
2023-01-07T19:46:11.653Z,9.97
2023-01-07T19:48:42.350Z,8.53
2023-01-07T19:51:12.268Z,8.50
2023-01-07T19:53:41.518Z,7.80
2023-01-07T19:56:13.195Z,7.30
2023-01-07T19:58:42.945Z,6.27
2023-01-07T20:01:14.626Z,8.30
2023-01-07T20:03:45.808Z,6.30
2023-01-07T20:06:17.722Z,5.93
2023-01-07T20:08:46.896Z,4.90
2023-01-07T20:11:16.997Z,5.17
2023-01-07T20:13:47.361Z,5.50
2023-01-07T20:16:18.251Z,4.60
2023-01-07T20:18:50.826Z,3.70
2023-01-07T20:21:21.923Z,3.60
2023-01-07T20:23:50.794Z,5.57
2023-01-07T20:26:21.690Z,5.13
2023-01-07T20:28:52.248Z,5.43
2023-01-07T20:31:23.823Z,5.30
2023-01-07T20:33:55.824Z,7.17
2023-01-07T20:36:27.430Z,7.07
2023-01-07T20:38:56.231Z,5.57
2023-01-07T20:41:27.484Z,5.20
2023-01-07T20:43:58.369Z,4.80
2023-01-07T20:46:29.111Z,4.17
2023-01-07T20:48:59.573Z,4.23
2023-01-07T20:51:28.743Z,4.60
2023-01-07T20:53:58.265Z,5.23
2023-01-07T20:56:31.911Z,4.83
2023-01-07T20:59:01.912Z,5.37
2023-01-07T21:01:31.181Z,4.50
2023-01-07T21:04:01.924Z,4.80
2023-01-07T21:06:30.628Z,5.03
2023-01-07T21:08:59.259Z,4.77
2023-01-07T21:11:28.137Z,4.07
2023-01-07T21:13:57.009Z,3.87
2023-01-07T21:16:27.498Z,3.63
2023-01-07T21:18:56.489Z,3.50
2023-01-07T21:21:27.024Z,3.07
2023-01-07T21:23:56.171Z,3.23
2023-01-07T21:26:26.192Z,3.50
2023-01-07T21:28:56.551Z,3.13
2023-01-07T21:31:26.143Z,3.47
2023-01-07T21:33:56.872Z,3.20
2023-01-07T21:36:28.271Z,2.80
2023-01-07T21:38:58.895Z,3.57
2023-01-07T21:41:29.599Z,4.43
2023-01-07T21:43:58.412Z,5.80
2023-01-07T21:46:27.479Z,6.67
2023-01-07T21:48:56.491Z,6.87
2023-01-07T21:51:28.731Z,5.00
2023-01-07T21:53:59.381Z,4.37
2023-01-07T21:56:32.697Z,4.30
2023-01-07T21:59:03.562Z,3.87
2023-01-07T22:01:32.395Z,3.97
2023-01-07T22:04:01.469Z,4.23
2023-01-07T22:06:33.724Z,3.70
2023-01-07T22:09:05.030Z,4.70
2023-01-07T22:11:35.267Z,4.30
2023-01-07T22:14:04.013Z,3.53
2023-01-07T22:16:33.775Z,3.50
2023-01-07T22:19:02.841Z,3.33
2023-01-07T22:21:33.838Z,3.50
2023-01-07T22:24:02.474Z,2.93
2023-01-07T22:26:31.091Z,3.00
2023-01-07T22:29:03.622Z,2.50
2023-01-07T22:31:36.419Z,2.80
2023-01-07T22:34:06.357Z,2.53
2023-01-07T22:36:44.016Z,2.80
2023-01-07T22:39:17.510Z,3.20
2023-01-07T22:41:46.467Z,3.20
2023-01-07T22:44:18.922Z,3.10
2023-01-07T22:46:50.672Z,3.10
2023-01-07T22:49:19.871Z,3.17
2023-01-07T22:51:50.834Z,3.13
2023-01-07T22:54:19.995Z,3.70
2023-01-07T22:56:49.003Z,3.33
2023-01-07T22:59:17.987Z,3.10
2023-01-07T23:01:46.559Z,2.90
2023-01-07T23:04:15.209Z,3.43
2023-01-07T23:06:43.879Z,3.00
2023-01-07T23:09:13.994Z,2.87
2023-01-07T23:11:51.931Z,2.70
2023-01-07T23:14:22.960Z,3.07
2023-01-07T23:16:53.032Z,3.27
2023-01-07T23:19:22.997Z,3.10
2023-01-07T23:21:53.846Z,3.47
2023-01-07T23:24:24.688Z,3.50
2023-01-07T23:26:55.333Z,3.70
2023-01-07T23:29:24.538Z,3.50
2023-01-07T23:31:53.306Z,3.83
2023-01-07T23:34:22.124Z,3.43
2023-01-07T23:36:50.780Z,3.93
2023-01-07T23:39:19.433Z,3.60
2023-01-07T23:41:49.482Z,3.50
2023-01-07T23:44:18.434Z,4.33
2023-01-07T23:46:47.669Z,4.37
2023-01-07T23:49:16.358Z,3.93
2023-01-07T23:51:44.955Z,3.77
2023-01-07T23:54:13.817Z,3.80
2023-01-07T23:56:42.631Z,3.43
2023-01-07T23:59:12.894Z,3.20
